Time;durP1;ratioP1;P1;durP2;ratioP2;P2;SDS_P1;SDS_P2;PMS_P1;PMS_P2;Temp;Humidity;BMP_temperature;BMP_pressure;BME280_temperature;BME280_humidity;BME280_pressure;Samples;Min_cycle;Max_cycle;Signal;HPM_P1;HPM_P2
2022/06/28 00:02:08;;;;;;;6.82;2.55;;;18.30;99.90;;;;;;4969047;28;20874;-52
2022/06/28 00:04:34;;;;;;;7.20;2.70;;;18.20;99.90;;;;;;4966762;28;20493;-52
2022/06/28 00:07:00;;;;;;;6.80;2.70;;;18.20;99.90;;;;;;4968526;28;20435;-52
2022/06/28 00:09:26;;;;;;;5.40;2.20;;;18.20;99.90;;;;;;4953216;28;20879;-52
2022/06/28 00:11:52;;;;;;;5.72;2.42;;;18.10;99.90;;;;;;4953528;28;20404;-52
2022/06/28 00:17:03;;;;;;;7.70;2.50;;;18.00;99.90;;;;;;4972647;28;20466;-52
2022/06/28 00:19:29;;;;;;;6.80;2.43;;;17.90;99.90;;;;;;4972048;28;20450;-52
2022/06/28 00:21:55;;;;;;;7.10;2.20;;;17.90;99.90;;;;;;4972251;28;21810;-52
2022/06/28 00:24:21;;;;;;;7.30;2.42;;;17.90;99.90;;;;;;4971930;28;20711;-52
2022/06/28 00:26:48;;;;;;;8.77;2.50;;;17.90;99.90;;;;;;4972000;28;20424;-53
2022/06/28 00:29:14;;;;;;;8.47;2.50;;;18.00;99.90;;;;;;4971882;28;20427;-52
2022/06/28 00:31:40;;;;;;;9.88;2.63;;;17.90;99.90;;;;;;4971647;28;20994;-53
2022/06/28 00:34:06;;;;;;;7.70;2.40;;;17.90;99.90;;;;;;4972479;28;20424;-52
2022/06/28 00:36:32;;;;;;;5.20;2.33;;;17.80;99.90;;;;;;4971703;28;20408;-52
2022/06/28 00:38:58;;;;;;;8.38;2.60;;;17.80;99.90;;;;;;4972663;28;20401;-52
2022/06/28 00:41:25;;;;;;;7.23;2.43;;;17.80;99.90;;;;;;4972156;28;20403;-52
2022/06/28 00:43:51;;;;;;;7.63;2.15;;;17.80;99.90;;;;;;4972152;28;20404;-52
2022/06/28 00:46:16;;;;;;;5.60;2.30;;;17.90;99.90;;;;;;4972336;28;20407;-52
2022/06/28 00:48:42;;;;;;;6.70;2.50;;;17.90;99.90;;;;;;4971217;28;21078;-52
2022/06/28 00:51:08;;;;;;;5.80;2.20;;;18.00;99.90;;;;;;4972321;28;20405;-52
2022/06/28 00:53:34;;;;;;;6.97;2.60;;;18.00;99.90;;;;;;4971360;28;20400;-52
2022/06/28 00:56:00;;;;;;;6.57;2.23;;;18.00;99.90;;;;;;4972533;28;20869;-53
2022/06/28 00:58:26;;;;;;;5.75;2.40;;;18.00;99.90;;;;;;4971412;28;20405;-52
2022/06/28 01:00:51;;;;;;;6.10;2.50;;;17.80;99.90;;;;;;4971953;28;20694;-52
2022/06/28 01:03:19;;;;;;;6.23;2.77;;;17.70;99.90;;;;;;4971921;28;20809;-52
2022/06/28 01:05:46;;;;;;;8.95;2.75;;;17.70;99.90;;;;;;4971128;28;20411;-52
2022/06/28 01:08:12;;;;;;;8.57;2.70;;;17.50;99.90;;;;;;4971758;28;20428;-52
2022/06/28 01:10:39;;;;;;;6.20;2.20;;;17.50;99.90;;;;;;4970211;28;20428;-52
2022/06/28 01:13:05;;;;;;;6.32;2.90;;;17.50;99.90;;;;;;4971190;28;20427;-52
2022/06/28 01:15:31;;;;;;;7.60;2.67;;;17.40;99.90;;;;;;4971547;28;20380;-52
2022/06/28 01:17:59;;;;;;;9.40;2.80;;;17.40;99.90;;;;;;4970969;28;20450;-52
2022/06/28 01:20:25;;;;;;;7.00;2.90;;;17.40;99.90;;;;;;4971336;28;20396;-52
2022/06/28 01:22:53;;;;;;;6.10;2.50;;;17.20;99.90;;;;;;4970127;28;20490;-52
2022/06/28 01:25:19;;;;;;;6.60;2.70;;;17.30;99.90;;;;;;4971202;28;20479;-52
2022/06/28 01:27:46;;;;;;;6.65;2.58;;;17.30;99.90;;;;;;4969951;28;20888;-52
2022/06/28 01:30:12;;;;;;;8.95;2.78;;;17.40;99.90;;;;;;4971769;28;20435;-52
2022/06/28 01:32:38;;;;;;;7.70;3.20;;;17.40;99.90;;;;;;4971052;28;20380;-52
2022/06/28 01:35:04;;;;;;;8.00;3.17;;;17.40;99.90;;;;;;4970521;28;20747;-52
2022/06/28 01:37:31;;;;;;;8.57;3.10;;;17.30;99.90;;;;;;4970465;28;20956;-52
2022/06/28 01:39:56;;;;;;;9.05;2.67;;;17.20;99.90;;;;;;4971313;28;20519;-52
2022/06/28 01:42:22;;;;;;;6.90;2.93;;;17.20;99.90;;;;;;4971134;28;20495;-52
2022/06/28 01:44:49;;;;;;;6.68;3.05;;;17.20;99.90;;;;;;4970424;28;20400;-52
2022/06/28 01:47:17;;;;;;;8.15;3.28;;;17.10;99.90;;;;;;4970741;28;20400;-52
2022/06/28 01:49:43;;;;;;;8.77;3.13;;;17.00;99.90;;;;;;4968449;28;20436;-52
2022/06/28 01:52:08;;;;;;;8.70;2.90;;;17.00;99.90;;;;;;4971085;28;20408;-52
2022/06/28 01:54:34;;;;;;;9.40;3.10;;;17.00;99.90;;;;;;4970401;28;20389;-52
2022/06/28 01:57:02;;;;;;;10.57;3.30;;;16.90;99.90;;;;;;4969960;28;20726;-52
2022/06/28 01:59:28;;;;;;;6.80;2.90;;;16.90;99.90;;;;;;4970325;28;20511;-52
2022/06/28 02:01:53;;;;;;;8.27;2.80;;;16.90;99.90;;;;;;4970903;28;20890;-52
2022/06/28 02:04:26;;;;;;;7.25;3.05;;;16.90;99.90;;;;;;4970943;28;20397;-52
2022/06/28 02:06:53;;;;;;;5.70;3.10;;;16.90;99.90;;;;;;4970406;28;20396;-52
2022/06/28 02:09:18;;;;;;;6.37;2.80;;;16.80;99.90;;;;;;4953776;28;20420;-52
2022/06/28 02:11:45;;;;;;;6.85;2.72;;;16.90;99.90;;;;;;4953133;28;20901;-52
2022/06/28 02:14:10;;;;;;;5.53;2.90;;;17.10;99.90;;;;;;4968254;28;20425;-52
2022/06/28 02:16:37;;;;;;;7.95;2.95;;;17.10;99.90;;;;;;4951504;28;20429;-52
2022/06/28 02:19:03;;;;;;;9.68;3.15;;;17.10;99.90;;;;;;4951689;28;20405;-52
2022/06/28 02:21:34;;;;;;;8.52;3.80;;;17.10;99.90;;;;;;4950462;28;20410;-52
2022/06/28 02:24:00;;;;;;;7.00;3.15;;;17.20;99.90;;;;;;4951701;28;20457;-52
2022/06/28 02:26:26;;;;;;;9.27;3.20;;;17.20;99.90;;;;;;4965516;28;20861;-52
2022/06/28 02:28:51;;;;;;;8.05;3.10;;;17.20;99.90;;;;;;4966359;28;20423;-52
2022/06/28 02:31:17;;;;;;;8.85;3.20;;;17.20;99.90;;;;;;4955520;28;20808;-52
2022/06/28 02:33:43;;;;;;;6.80;2.97;;;17.20;99.90;;;;;;4968850;28;20396;-52
2022/06/28 02:40:21;;;;;;;6.45;2.97;;;17.00;99.90;;;;;;4969954;28;20770;-52
2022/06/28 02:41:54;;;;;;;7.55;3.30;;;16.90;99.90;;;;;;4969604;28;20511;-52
2022/06/28 02:44:20;;;;;;;7.40;3.25;;;16.90;99.90;;;;;;4970572;28;20949;-52
2022/06/28 02:46:46;;;;;;;7.35;3.70;;;16.90;99.90;;;;;;4969274;28;21033;-52
2022/06/28 02:49:13;;;;;;;8.60;3.20;;;16.80;99.90;;;;;;4969747;28;21088;-52
2022/06/28 02:51:40;;;;;;;6.97;3.30;;;16.70;99.90;;;;;;4969038;28;20407;-52
2022/06/28 02:54:06;;;;;;;7.32;3.20;;;16.50;99.90;;;;;;4969990;28;20865;-52
2022/06/28 02:56:31;;;;;;;7.95;3.67;;;16.50;99.90;;;;;;4969230;28;20404;-52
2022/06/28 02:58:57;;;;;;;6.90;3.80;;;16.50;99.90;;;;;;4969996;28;20455;-52
2022/06/28 03:01:23;;;;;;;10.07;4.37;;;16.40;99.90;;;;;;4969604;28;20400;-52
2022/06/28 03:03:48;;;;;;;7.40;3.77;;;16.40;99.90;;;;;;4968987;28;20696;-52
2022/06/28 03:06:14;;;;;;;10.27;3.45;;;16.30;99.90;;;;;;4969499;28;20400;-52
2022/06/28 03:08:39;;;;;;;8.30;3.33;;;16.20;99.90;;;;;;4968493;28;20447;-52
2022/06/28 03:11:05;;;;;;;8.13;3.37;;;16.10;99.90;;;;;;4969771;28;20455;-52
2022/06/28 03:13:31;;;;;;;6.63;3.50;;;16.20;99.90;;;;;;4969041;28;20409;-52
2022/06/28 03:15:56;;;;;;;7.72;3.50;;;16.20;99.90;;;;;;4969009;28;20404;-52
2022/06/28 03:18:22;;;;;;;7.20;3.70;;;16.30;99.90;;;;;;4970103;28;20487;-52
2022/06/28 03:20:48;;;;;;;8.10;3.73;;;16.20;99.90;;;;;;4969006;28;20405;-52
2022/06/28 03:23:14;;;;;;;8.50;3.28;;;16.20;99.90;;;;;;4970004;28;20432;-52
2022/06/28 03:25:39;;;;;;;8.07;3.60;;;16.10;99.90;;;;;;4967195;28;20426;-52
2022/06/28 03:28:05;;;;;;;8.23;3.58;;;16.00;99.90;;;;;;4968923;28;20866;-52
2022/06/28 03:30:31;;;;;;;6.50;3.53;;;16.00;99.90;;;;;;4968486;28;20414;-52
2022/06/28 03:32:57;;;;;;;14.05;3.65;;;16.10;99.90;;;;;;4969126;28;20400;-52
2022/06/28 03:35:23;;;;;;;7.83;3.47;;;16.10;99.90;;;;;;4969471;28;20400;-52
2022/06/28 03:37:49;;;;;;;7.57;3.60;;;16.10;99.90;;;;;;4966423;28;20942;-52
2022/06/28 03:40:15;;;;;;;8.32;4.20;;;16.00;99.90;;;;;;4969525;28;20506;-52
2022/06/28 03:42:41;;;;;;;10.30;4.00;;;16.10;99.90;;;;;;4968415;28;20520;-52
2022/06/28 03:45:06;;;;;;;9.10;3.80;;;16.10;99.90;;;;;;4969209;28;20388;-52
2022/06/28 03:47:32;;;;;;;10.55;4.10;;;16.10;99.90;;;;;;4968095;28;20400;-52
2022/06/28 03:49:58;;;;;;;11.17;3.67;;;16.20;99.90;;;;;;4970174;28;20444;-52
2022/06/28 03:52:28;;;;;;;7.83;3.60;;;16.30;99.90;;;;;;4971590;28;20415;-52
2022/06/28 03:54:56;;;;;;;7.32;3.90;;;16.40;99.90;;;;;;4972879;28;20881;-52
2022/06/28 03:57:27;;;;;;;8.73;4.03;;;16.50;99.90;;;;;;4973074;28;20818;-52
2022/06/28 03:59:56;;;;;;;9.68;3.85;;;16.60;99.90;;;;;;4970842;28;20407;-50
2022/06/28 04:02:21;;;;;;;8.98;3.80;;;16.70;99.90;;;;;;4973089;28;20730;-50
2022/06/28 04:04:47;;;;;;;7.13;3.83;;;16.80;99.90;;;;;;4972352;28;20892;-50
2022/06/28 04:07:13;;;;;;;8.90;3.53;;;16.90;99.90;;;;;;4972999;28;20400;-50
2022/06/28 04:09:38;;;;;;;8.73;3.80;;;17.00;99.90;;;;;;4971591;28;20462;-50
2022/06/28 04:12:04;;;;;;;6.83;3.33;;;17.00;99.90;;;;;;4972811;28;20411;-50
2022/06/28 04:14:30;;;;;;;8.57;3.78;;;17.00;99.90;;;;;;4972378;28;20407;-51
2022/06/28 04:16:56;;;;;;;7.07;3.37;;;17.10;99.90;;;;;;4972800;28;20753;-50
2022/06/28 04:19:21;;;;;;;11.97;3.50;;;17.10;99.90;;;;;;4972126;28;20412;-50
2022/06/28 04:21:47;;;;;;;11.30;3.65;;;17.30;99.90;;;;;;4971456;28;20403;-50
2022/06/28 04:24:13;;;;;;;9.43;3.58;;;17.30;99.90;;;;;;4970899;28;20889;-50
2022/06/28 04:26:39;;;;;;;13.40;3.80;;;17.50;99.90;;;;;;4970589;28;20470;-50
2022/06/28 04:29:05;;;;;;;9.32;3.30;;;17.60;99.90;;;;;;4969053;28;20786;-51
2022/06/28 04:31:31;;;;;;;9.70;3.90;;;17.60;99.90;;;;;;4970754;28;20635;-51
2022/06/28 04:33:56;;;;;;;7.25;3.55;;;17.70;99.90;;;;;;4971191;28;20487;-50
2022/06/28 04:36:23;;;;;;;6.63;3.47;;;17.80;99.90;;;;;;4972081;28;20598;-50
2022/06/28 04:38:49;;;;;;;6.97;3.28;;;18.10;99.90;;;;;;4971691;28;20480;-50
2022/06/28 04:41:14;;;;;;;8.80;4.10;;;18.10;60.80;;;;;;4972706;28;20858;-54
2022/06/28 04:43:40;;;;;;;6.93;3.35;;;18.20;56.00;;;;;;4968411;28;20874;-54
2022/06/28 04:46:06;;;;;;;7.90;3.30;;;18.10;58.30;;;;;;4972416;28;20427;-50
2022/06/28 04:48:31;;;;;;;7.88;3.88;;;18.20;62.60;;;;;;4969873;28;20436;-51
2022/06/28 04:51:10;;;;;;;7.75;3.50;;;18.20;50.80;;;;;;4968533;28;20419;-50
2022/06/28 04:53:37;;;;;;;8.75;3.75;;;18.20;22.20;;;;;;4963474;28;20592;-51
2022/06/28 04:56:03;;;;;;;9.13;4.50;;;18.20;24.50;;;;;;4964538;28;20412;-50
2022/06/28 04:58:28;;;;;;;6.35;3.45;;;18.20;46.70;;;;;;4967821;28;20915;-51
2022/06/28 05:00:54;;;;;;;8.80;3.53;;;18.10;86.70;;;;;;4960999;28;21110;-55
2022/06/28 05:03:20;;;;;;;9.80;3.97;;;18.10;65.30;;;;;;4966517;28;20407;-55
2022/06/28 05:05:47;;;;;;;7.30;3.57;;;18.10;62.70;;;;;;4955646;28;20491;-55
2022/06/28 05:08:13;;;;;;;9.40;4.27;;;18.20;81.00;;;;;;4970422;28;20467;-55
2022/06/28 05:10:39;;;;;;;6.88;3.40;;;18.30;26.10;;;;;;4968985;28;20400;-54
2022/06/28 05:13:05;;;;;;;9.43;3.75;;;18.30;22.40;;;;;;4971505;28;20397;-55
2022/06/28 05:15:30;;;;;;;10.00;4.10;;;18.50;27.90;;;;;;4969130;28;20412;-52
2022/06/28 05:17:56;;;;;;;10.40;4.20;;;18.60;11.90;;;;;;4971185;28;20414;-54
2022/06/28 05:20:22;;;;;;;9.90;4.40;;;18.70;1.00;;;;;;4972126;28;20821;-55
2022/06/28 05:22:47;;;;;;;8.77;3.80;;;19.00;1.00;;;;;;4971483;28;20567;-55
2022/06/28 05:25:13;;;;;;;8.85;4.30;;;19.10;1.00;;;;;;4972518;28;20384;-55
2022/06/28 05:27:38;;;;;;;7.93;4.57;;;19.30;1.00;;;;;;4971210;28;20806;-55
2022/06/28 05:30:04;;;;;;;9.35;4.03;;;19.50;1.00;;;;;;4971879;28;20824;-55
2022/06/28 05:32:30;;;;;;;10.90;4.40;;;19.70;1.00;;;;;;4971732;28;20400;-53
2022/06/28 05:34:56;;;;;;;8.27;3.60;;;19.80;99.90;;;;;;4969929;28;20838;-54
2022/06/28 05:37:21;;;;;;;8.60;3.85;;;19.80;99.90;;;;;;4972109;28;20774;-55
2022/06/28 05:39:47;;;;;;;11.07;4.60;;;19.90;99.90;;;;;;4971120;28;20494;-55
2022/06/28 05:42:14;;;;;;;8.20;4.00;;;19.60;99.90;;;;;;4972057;28;20395;-55
2022/06/28 05:44:40;;;;;;;8.17;3.90;;;19.50;99.90;;;;;;4971117;28;20400;-55
2022/06/28 05:47:05;;;;;;;9.10;4.80;;;19.60;1.00;;;;;;4972012;28;20381;-56
2022/06/28 05:49:31;;;;;;;9.70;4.53;;;19.60;1.00;;;;;;4970802;28;20427;-53
2022/06/28 05:51:57;;;;;;;9.50;5.00;;;19.70;1.00;;;;;;4971588;28;20396;-54
2022/06/28 05:54:22;;;;;;;10.48;5.60;;;19.80;99.90;;;;;;4971751;28;20790;-55
2022/06/28 05:56:49;;;;;;;9.38;4.53;;;19.80;99.90;;;;;;4971110;28;21035;-55
2022/06/28 05:59:15;;;;;;;9.30;4.40;;;19.90;99.90;;;;;;4971227;28;20408;-55
2022/06/28 06:01:40;;;;;;;8.10;4.68;;;19.90;99.90;;;;;;4970719;28;20400;-55
2022/06/28 06:04:06;;;;;;;9.53;5.30;;;20.20;99.90;;;;;;4967640;28;20875;-55
2022/06/28 06:06:32;;;;;;;11.40;5.40;;;20.40;1.00;;;;;;4961878;28;20411;-54
2022/06/28 06:08:59;;;;;;;10.10;5.10;;;21.70;99.90;;;;;;4971476;28;20420;-54
2022/06/28 06:11:25;;;;;;;10.97;6.47;;;22.30;99.90;;;;;;4971059;28;20411;-55
2022/06/28 06:13:50;;;;;;;9.40;5.60;;;21.90;1.00;;;;;;4970171;28;20540;-55
2022/06/28 06:16:16;;;;;;;9.93;5.53;;;21.40;99.90;;;;;;4971016;28;20920;-55
2022/06/28 06:18:42;;;;;;;10.07;6.00;;;21.00;1.00;;;;;;4970525;28;20466;-55
2022/06/28 06:21:08;;;;;;;10.60;5.37;;;20.90;1.00;;;;;;4971001;28;20761;-55
2022/06/28 06:23:34;;;;;;;8.60;4.90;;;21.10;99.90;;;;;;4970636;28;20388;-55
2022/06/28 06:26:01;;;;;;;8.00;4.53;;;22.10;1.00;;;;;;4971050;28;20483;-56
2022/06/28 06:28:27;;;;;;;8.32;4.50;;;23.80;99.90;;;;;;4971059;28;20495;-56
2022/06/28 06:30:53;;;;;;;8.85;4.93;;;25.20;1.00;;;;;;4970135;28;20510;-55
2022/06/28 06:33:18;;;;;;;9.90;5.40;;;25.00;1.00;;;;;;4971084;28;20447;-55
2022/06/28 06:35:44;;;;;;;9.63;4.80;;;25.10;1.00;;;;;;4969852;28;20400;-56
2022/06/28 06:38:10;;;;;;;8.47;4.50;;;25.60;1.00;;;;;;4971058;28;20385;-56
2022/06/28 06:40:36;;;;;;;9.37;4.73;;;25.60;1.00;;;;;;4969904;28;20731;-56
2022/06/28 06:43:03;;;;;;;8.10;5.00;;;26.50;1.00;;;;;;4969661;28;20392;-56
2022/06/28 06:45:29;;;;;;;9.18;4.80;;;27.80;1.00;;;;;;4970669;28;20452;-56
2022/06/28 06:47:54;;;;;;;8.80;5.40;;;28.60;99.90;;;;;;4970005;28;20838;-59
2022/06/28 06:50:22;;;;;;;9.07;6.65;;;29.60;99.90;;;;;;4970233;28;20484;-55
2022/06/28 06:52:48;;;;;;;9.43;6.40;;;29.50;99.90;;;;;;4970215;28;20406;-55
2022/06/28 06:55:14;;;;;;;10.05;6.50;;;29.00;99.90;;;;;;4970487;28;20400;-56
2022/06/28 06:57:40;;;;;;;8.90;5.93;;;29.60;99.90;;;;;;4970085;28;20424;-56
2022/06/28 07:00:06;;;;;;;10.40;7.93;;;29.70;99.90;;;;;;4970793;28;20486;-55
2022/06/28 07:02:41;;;;;;;9.40;6.43;;;29.50;99.90;;;;;;4970324;28;20869;-53
2022/06/28 07:05:08;;;;;;;11.27;6.10;;;29.00;99.90;;;;;;4970468;28;20759;-55
2022/06/28 07:07:33;;;;;;;9.50;6.75;;;28.30;99.90;;;;;;4969440;28;20404;-54
2022/06/28 07:10:00;;;;;;;9.23;6.30;;;27.80;99.90;;;;;;4969094;28;20912;-55
2022/06/28 07:12:26;;;;;;;9.75;6.13;;;27.60;99.90;;;;;;4954961;28;20398;-55
2022/06/28 07:14:51;;;;;;;10.00;5.20;;;26.80;99.90;;;;;;4965398;28;20419;-55
2022/06/28 07:17:17;;;;;;;12.02;5.32;;;25.70;99.90;;;;;;4970391;28;20750;-55
2022/06/28 07:19:43;;;;;;;10.35;4.85;;;24.60;99.90;;;;;;4969819;28;20753;-55
2022/06/28 07:22:08;;;;;;;8.45;4.70;;;23.40;99.90;;;;;;4970477;28;20400;-55
2022/06/28 07:24:34;;;;;;;10.07;5.72;;;22.70;99.90;;;;;;4970546;28;20761;-52
2022/06/28 07:26:59;;;;;;;9.57;5.40;;;22.30;99.90;;;;;;4974167;28;20401;-55
2022/06/28 07:29:25;;;;;;;9.50;5.22;;;22.10;1.00;;;;;;4974375;28;20451;-55
2022/06/28 07:31:51;;;;;;;9.70;5.70;;;21.70;1.00;;;;;;4973297;28;20455;-55
2022/06/28 07:34:17;;;;;;;9.23;5.72;;;21.40;99.90;;;;;;4974266;28;20861;-55
2022/06/28 07:36:43;;;;;;;9.90;6.40;;;21.20;99.90;;;;;;4973389;28;20388;-55
2022/06/28 07:39:09;;;;;;;8.90;5.20;;;21.60;99.90;;;;;;4974253;28;20458;-55
2022/06/28 07:41:35;;;;;;;9.38;5.25;;;21.80;17.10;;;;;;4973529;28;20854;-55
2022/06/28 07:44:00;;;;;;;11.50;5.20;;;22.20;1.00;;;;;;4974541;28;20793;-55
2022/06/28 07:46:26;;;;;;;8.80;5.50;;;22.40;1.00;;;;;;4972642;28;20435;-55
2022/06/28 07:48:53;;;;;;;8.80;4.90;;;22.50;1.00;;;;;;4973059;28;20454;-55
2022/06/28 07:54:03;;;;;;;9.60;4.90;;;22.60;1.00;;;;;;4955156;28;20934;-56
2022/06/28 07:56:28;;;;;;;11.52;5.45;;;23.80;99.90;;;;;;4955036;29;20492;-55
2022/06/28 07:58:54;;;;;;;10.38;5.55;;;23.80;99.90;;;;;;4966156;28;21304;-55
2022/06/28 08:01:20;;;;;;;8.70;4.90;;;23.50;99.90;;;;;;4968658;28;20447;-55
2022/06/28 08:03:46;;;;;;;7.97;4.60;;;23.60;99.90;;;;;;4972330;28;20809;-55
2022/06/28 08:06:12;;;;;;;9.40;4.80;;;24.00;99.90;;;;;;4973366;28;20823;-55
2022/06/28 08:08:38;;;;;;;9.50;4.90;;;24.10;99.90;;;;;;4972894;28;20420;-55
2022/06/28 08:11:03;;;;;;;8.63;4.20;;;24.20;99.90;;;;;;4973744;28;20499;-55
2022/06/28 08:13:29;;;;;;;10.73;4.20;;;23.90;99.90;;;;;;4973557;28;20391;-54
2022/06/28 08:15:55;;;;;;;8.13;4.83;;;23.90;99.90;;;;;;4973136;28;20888;-55
2022/06/28 08:18:20;;;;;;;7.10;3.80;;;23.70;99.90;;;;;;4973350;28;20396;-57
2022/06/28 08:20:46;;;;;;;10.02;4.82;;;23.60;99.90;;;;;;4973029;28;20388;-55
2022/06/28 08:23:12;;;;;;;7.07;3.70;;;23.50;99.90;;;;;;4973319;28;20495;-55
2022/06/28 08:25:38;;;;;;;7.70;3.85;;;23.60;99.90;;;;;;4972493;28;20873;-55
2022/06/28 08:28:04;;;;;;;8.00;3.63;;;23.70;99.90;;;;;;4973442;28;20388;-56
2022/06/28 08:30:30;;;;;;;8.38;3.25;;;23.40;99.90;;;;;;4972022;28;20424;-56
2022/06/28 08:32:56;;;;;;;7.33;3.37;;;23.80;99.90;;;;;;4972383;28;20387;-55
2022/06/28 08:35:22;;;;;;;8.00;3.40;;;;;;;;;;4972856;28;20391;-56
2022/06/28 08:37:48;;;;;;;7.10;2.90;;;25.80;99.90;;;;;;4972538;28;20384;-56
2022/06/28 08:40:14;;;;;;;7.40;2.90;;;28.10;99.90;;;;;;4973404;28;20450;-56
2022/06/28 08:42:47;;;;;;;8.17;3.63;;;29.90;99.90;;;;;;4972610;28;20377;-56
2022/06/28 08:45:14;;;;;;;7.70;4.85;;;30.60;99.90;;;;;;4973419;28;20388;-56
2022/06/28 08:47:42;;;;;;;6.70;3.55;;;31.70;99.90;;;;;;4972456;28;20380;-56
2022/06/28 08:50:22;;;;;;;6.88;5.10;;;32.80;99.90;;;;;;4972926;28;20428;-56
2022/06/28 08:52:49;;;;;;;6.15;2.72;;;33.00;99.90;;;;;;4972095;28;20534;-56
2022/06/28 08:55:15;;;;;;;8.80;8.00;;;33.80;99.90;;;;;;4972831;28;20396;-56
2022/06/28 08:57:42;;;;;;;10.10;9.10;;;35.10;99.90;;;;;;4972046;28;20384;-56
2022/06/28 09:00:09;;;;;;;9.70;8.80;;;35.50;99.90;;;;;;4972917;28;20878;-56
2022/06/28 09:02:35;;;;;;;11.15;10.20;;;35.60;99.90;;;;;;4972177;28;20542;-53
2022/06/28 09:05:01;;;;;;;7.03;5.77;;;35.30;99.90;;;;;;4972658;28;20854;-56
2022/06/28 09:07:28;;;;;;;9.20;8.40;;;35.80;99.90;;;;;;4972506;28;20500;-56
2022/06/28 09:09:54;;;;;;;8.93;8.13;;;36.30;99.90;;;;;;4971927;28;20427;-57
2022/06/28 09:12:20;;;;;;;6.00;1.80;;;36.40;99.90;;;;;;4972962;28;20411;-57
2022/06/28 09:14:46;;;;;;;6.03;1.50;;;36.50;99.90;;;;;;4957457;28;20481;-55
2022/06/28 09:17:27;;;;;;;6.10;1.58;;;35.80;99.90;;;;;;4953219;28;20448;-57
2022/06/28 09:19:59;;;;;;;7.05;5.60;;;33.90;99.90;;;;;;4952108;28;20682;-57
2022/06/28 09:22:37;;;;;;;6.50;5.70;;;32.30;99.90;;;;;;4952645;28;20630;-56
2022/06/28 09:25:08;;;;;;;8.27;5.38;;;32.40;99.90;;;;;;4952928;28;20906;-57
2022/06/28 09:27:39;;;;;;;5.90;4.60;;;33.50;99.90;;;;;;4952572;28;20390;-53
2022/06/28 09:30:08;;;;;;;6.60;5.20;;;33.20;99.90;;;;;;4953110;28;20422;-56
2022/06/28 09:32:35;;;;;;;9.27;5.43;;;32.40;99.90;;;;;;4952529;28;20397;-53
2022/06/28 09:35:03;;;;;;;7.80;6.40;;;32.10;99.90;;;;;;4952560;28;20564;-57
2022/06/28 09:37:31;;;;;;;9.77;6.50;;;31.10;99.90;;;;;;4952785;28;20394;-56
2022/06/28 09:39:57;;;;;;;7.50;6.50;;;30.00;99.90;;;;;;4951835;28;20497;-58
2022/06/28 09:42:22;;;;;;;7.65;6.13;;;28.90;99.90;;;;;;4952773;28;20402;-56
2022/06/28 09:44:51;;;;;;;8.93;5.70;;;28.10;99.90;;;;;;4951904;28;20397;-56
2022/06/28 09:47:17;;;;;;;7.30;5.70;;;27.60;99.90;;;;;;4951773;28;20493;-56
2022/06/28 09:49:47;;;;;;;8.30;6.20;;;27.10;99.90;;;;;;4951757;28;20528;-56
2022/06/28 09:52:13;;;;;;;8.40;5.53;;;26.70;99.90;;;;;;4952853;28;20390;-56
2022/06/28 09:54:41;;;;;;;7.00;5.20;;;27.80;99.90;;;;;;4951730;28;20468;-56
2022/06/28 09:57:09;;;;;;;9.00;5.15;;;29.20;99.90;;;;;;4952497;28;20445;-56
2022/06/28 09:59:35;;;;;;;7.30;4.97;;;30.30;99.90;;;;;;4952676;28;20412;-53
2022/06/28 10:02:01;;;;;;;6.85;4.20;;;31.50;99.90;;;;;;4962261;28;20396;-60
2022/06/28 10:04:27;;;;;;;6.55;4.15;;;32.00;99.90;;;;;;4958846;28;20407;-54
2022/06/28 10:06:54;;;;;;;6.60;3.97;;;31.50;99.90;;;;;;4968335;28;20494;-53
2022/06/28 10:09:20;;;;;;;6.50;4.40;;;31.70;99.90;;;;;;4965325;28;20428;-53
2022/06/28 10:17:29;;;;;;;8.00;6.07;;;29.00;99.90;;;;;;4961211;28;20396;-53
2022/06/28 10:19:57;;;;;;;7.60;4.70;;;29.10;99.90;;;;;;4963905;28;20420;-53
2022/06/28 10:22:23;;;;;;;6.30;5.22;;;29.90;99.90;;;;;;4967207;28;20405;-53
2022/06/28 10:24:55;;;;;;;6.45;4.45;;;30.30;99.90;;;;;;4969926;28;20384;-53
2022/06/28 10:27:22;;;;;;;6.38;4.50;;;31.40;99.90;;;;;;4966846;28;20443;-53
2022/06/28 10:30:08;;;;;;;6.70;4.70;;;31.90;99.90;;;;;;4967708;28;20419;-53
2022/06/28 10:32:50;;;;;;;6.20;4.60;;;32.10;99.90;;;;;;4961614;28;20408;-53
2022/06/28 10:35:36;;;;;;;7.50;4.82;;;31.50;99.90;;;;;;4969990;28;20411;-53
2022/06/28 10:38:08;;;;;;;6.05;4.97;;;31.00;99.90;;;;;;4969885;28;20438;-52
2022/06/28 10:40:45;;;;;;;7.00;4.70;;;30.70;99.90;;;;;;4969823;28;20454;-52
2022/06/28 10:43:11;;;;;;;7.30;5.10;;;29.00;99.90;;;;;;4956260;28;20392;-52
2022/06/28 10:46:06;;;;;;;6.35;5.07;;;27.80;99.90;;;;;;4969816;28;20944;-52
2022/06/28 10:48:52;;;;;;;7.10;5.90;;;27.80;99.90;;;;;;4954642;28;20421;-52
2022/06/28 10:51:19;;;;;;;6.97;6.00;;;27.90;99.90;;;;;;4963840;28;20778;-52
2022/06/28 10:54:01;;;;;;;8.90;5.80;;;27.70;99.90;;;;;;4969343;28;20404;-52
2022/06/28 10:56:28;;;;;;;7.70;4.80;;;27.70;99.90;;;;;;4965943;28;20420;-52
2022/06/28 10:59:02;;;;;;;8.13;4.57;;;27.60;99.90;;;;;;4962151;28;20443;-53
2022/06/28 11:01:40;;;;;;;6.75;4.57;;;27.10;99.90;;;;;;4970013;28;20427;-54
2022/06/28 11:04:13;;;;;;;6.40;4.00;;;27.10;99.90;;;;;;4962260;28;20413;-52
2022/06/28 11:06:43;;;;;;;6.97;4.00;;;27.60;99.90;;;;;;4967878;28;20975;-53
2022/06/28 11:09:18;;;;;;;6.10;4.10;;;27.60;99.90;;;;;;4965456;28;20427;-52
2022/06/28 11:12:06;;;;;;;6.77;3.87;;;27.80;99.90;;;;;;4964664;28;20396;-52
2022/06/28 11:14:46;;;;;;;7.20;4.40;;;27.90;99.90;;;;;;4960394;28;20900;-52
2022/06/28 11:17:16;;;;;;;6.20;4.32;;;28.20;99.90;;;;;;4960776;28;20432;-52
2022/06/28 11:19:50;;;;;;;7.82;4.78;;;28.60;99.90;;;;;;4958978;28;20430;-52
2022/06/28 11:22:40;;;;;;;6.50;4.10;;;28.80;99.90;;;;;;4968158;28;20815;-52
2022/06/28 11:25:17;;;;;;;7.28;5.20;;;29.00;99.90;;;;;;4960859;28;20540;-52
2022/06/28 11:27:46;;;;;;;6.40;4.50;;;28.50;99.90;;;;;;4966145;28;20384;-54
2022/06/28 11:30:13;;;;;;;6.53;4.40;;;27.90;99.90;;;;;;4966408;28;20518;-53
2022/06/28 11:32:43;;;;;;;6.45;4.43;;;27.70;99.90;;;;;;4958807;28;20433;-52
2022/06/28 11:35:13;;;;;;;6.90;4.32;;;28.00;99.90;;;;;;4962219;28;20861;-52
2022/06/28 11:37:56;;;;;;;7.60;5.10;;;27.70;99.90;;;;;;4969125;28;20427;-53
2022/06/28 11:40:26;;;;;;;6.30;4.27;;;27.90;99.90;;;;;;4967649;28;20414;-52
2022/06/28 11:43:04;;;;;;;6.00;4.20;;;28.20;99.90;;;;;;4968062;28;20925;-52
2022/06/28 11:45:51;;;;;;;7.70;4.70;;;28.30;99.90;;;;;;4951450;28;22541;-52
2022/06/28 11:48:19;;;;;;;6.30;4.38;;;28.40;99.90;;;;;;4963799;28;20426;-52
2022/06/28 11:50:53;;;;;;;6.53;4.72;;;28.50;99.90;;;;;;4964549;28;20740;-52
2022/06/28 11:53:20;;;;;;;8.23;4.70;;;28.50;99.90;;;;;;4961225;28;20415;-52
2022/06/28 11:55:46;;;;;;;6.80;5.00;;;28.50;99.90;;;;;;4966922;28;20428;-53
2022/06/28 11:58:27;;;;;;;6.53;4.80;;;28.80;99.90;;;;;;4965592;28;20889;-52
2022/06/28 12:01:11;;;;;;;6.77;5.40;;;28.80;99.90;;;;;;4961754;28;20399;-52
2022/06/28 12:03:43;;;;;;;7.30;4.82;;;28.40;99.90;;;;;;4959359;28;20417;-52
2022/06/28 12:06:18;;;;;;;6.22;5.00;;;28.20;99.90;;;;;;4962139;28;21661;-53
2022/06/28 12:08:53;;;;;;;5.95;4.70;;;28.30;99.90;;;;;;4966038;28;20422;-51
2022/06/28 12:11:34;;;;;;;6.75;4.82;;;28.50;99.90;;;;;;4971041;28;20416;-52
2022/06/28 12:14:02;;;;;;;6.30;4.70;;;28.40;99.90;;;;;;4964854;28;20498;-52
2022/06/28 12:16:35;;;;;;;7.80;4.85;;;28.40;99.90;;;;;;4971149;28;20392;-52
2022/06/28 12:19:04;;;;;;;8.85;4.15;;;28.60;99.90;;;;;;4971463;28;20439;-52
2022/06/28 12:21:30;;;;;;;6.65;4.50;;;28.80;99.90;;;;;;4972616;28;20407;-52
2022/06/28 12:23:57;;;;;;;6.03;4.30;;;28.60;99.90;;;;;;4969383;28;20404;-52
2022/06/28 12:26:44;;;;;;;6.40;4.25;;;28.40;99.90;;;;;;4970273;28;20408;-52
2022/06/28 12:29:13;;;;;;;7.00;4.40;;;27.90;99.90;;;;;;4971358;28;20500;-52
2022/06/28 12:31:42;;;;;;;6.82;4.40;;;28.00;99.90;;;;;;4971477;28;20392;-52
2022/06/28 12:34:08;;;;;;;6.47;4.63;;;27.60;99.90;;;;;;4966032;28;20418;-53
2022/06/28 12:36:35;;;;;;;6.00;4.50;;;27.20;99.90;;;;;;4965373;28;20490;-53
2022/06/28 12:39:01;;;;;;;6.60;4.75;;;27.70;99.90;;;;;;4966053;28;20416;-53
2022/06/28 12:41:27;;;;;;;6.43;4.53;;;27.90;99.90;;;;;;4965199;28;20953;-53
2022/06/28 12:43:53;;;;;;;6.00;3.80;;;27.70;99.90;;;;;;4964541;28;20419;-53
2022/06/28 12:46:18;;;;;;;6.25;4.40;;;27.80;99.90;;;;;;4966688;28;20412;-53
2022/06/28 12:48:44;;;;;;;6.10;4.30;;;28.20;99.90;;;;;;4969701;28;20420;-53
2022/06/28 12:51:10;;;;;;;5.80;3.70;;;28.10;99.90;;;;;;4966544;28;21009;-52
2022/06/28 12:53:35;;;;;;;6.95;3.80;;;28.50;99.90;;;;;;4965367;28;20511;-52
2022/06/28 12:56:01;;;;;;;6.65;4.80;;;28.50;99.90;;;;;;4971559;28;20848;-51
2022/06/28 12:58:26;;;;;;;9.03;4.87;;;28.70;99.90;;;;;;4971488;28;20376;-53
2022/06/28 13:00:52;;;;;;;7.40;4.90;;;28.60;99.90;;;;;;4970122;28;20862;-51
2022/06/28 13:03:18;;;;;;;10.00;4.60;;;28.50;99.90;;;;;;4972117;28;20800;-52
2022/06/28 13:05:44;;;;;;;5.70;3.77;;;28.40;99.90;;;;;;4968643;28;20408;-52